sensor_id;sensor_type;location;lat;lon;timestamp;P1;durP1;ratioP1;P2;durP2;ratioP2
41263;SDS011;26998;48.714;9.414;2022-12-26T00:01:09;5.93;;;5.00;;
41263;SDS011;26998;48.714;9.414;2022-12-26T00:03:37;5.50;;;4.87;;
41263;SDS011;26998;48.714;9.414;2022-12-26T00:06:10;5.18;;;4.55;;
41263;SDS011;26998;48.714;9.414;2022-12-26T00:08:38;5.93;;;4.85;;
41263;SDS011;26998;48.714;9.414;2022-12-26T00:11:04;4.88;;;4.32;;
41263;SDS011;26998;48.714;9.414;2022-12-26T00:13:31;7.28;;;4.85;;
41263;SDS011;26998;48.714;9.414;2022-12-26T00:16:07;7.13;;;5.57;;
41263;SDS011;26998;48.714;9.414;2022-12-26T00:18:33;5.45;;;4.50;;
41263;SDS011;26998;48.714;9.414;2022-12-26T00:21:00;5.60;;;4.53;;
41263;SDS011;26998;48.714;9.414;2022-12-26T00:23:27;7.38;;;6.00;;
41263;SDS011;26998;48.714;9.414;2022-12-26T00:25:53;8.52;;;5.88;;
41263;SDS011;26998;48.714;9.414;2022-12-26T00:28:20;6.90;;;5.25;;
41263;SDS011;26998;48.714;9.414;2022-12-26T00:30:46;5.90;;;4.78;;
41263;SDS011;26998;48.714;9.414;2022-12-26T00:33:12;5.82;;;5.25;;
41263;SDS011;26998;48.714;9.414;2022-12-26T00:35:39;6.13;;;4.68;;
41263;SDS011;26998;48.714;9.414;2022-12-26T00:38:06;6.40;;;4.85;;
41263;SDS011;26998;48.714;9.414;2022-12-26T00:40:32;7.32;;;5.30;;
41263;SDS011;26998;48.714;9.414;2022-12-26T00:42:59;6.10;;;4.85;;
41263;SDS011;26998;48.714;9.414;2022-12-26T00:45:25;7.68;;;6.32;;
41263;SDS011;26998;48.714;9.414;2022-12-26T00:47:51;8.40;;;6.07;;
41263;SDS011;26998;48.714;9.414;2022-12-26T00:50:18;8.13;;;5.72;;
41263;SDS011;26998;48.714;9.414;2022-12-26T00:52:45;7.72;;;5.80;;
41263;SDS011;26998;48.714;9.414;2022-12-26T00:55:11;6.90;;;4.85;;
41263;SDS011;26998;48.714;9.414;2022-12-26T00:57:37;7.78;;;6.05;;
41263;SDS011;26998;48.714;9.414;2022-12-26T01:00:04;6.57;;;5.82;;
41263;SDS011;26998;48.714;9.414;2022-12-26T01:02:31;8.15;;;6.13;;
41263;SDS011;26998;48.714;9.414;2022-12-26T01:04:58;12.68;;;8.20;;
41263;SDS011;26998;48.714;9.414;2022-12-26T01:07:24;13.00;;;8.27;;
41263;SDS011;26998;48.714;9.414;2022-12-26T01:09:51;10.38;;;7.50;;
41263;SDS011;26998;48.714;9.414;2022-12-26T01:12:17;13.90;;;9.43;;
41263;SDS011;26998;48.714;9.414;2022-12-26T01:14:44;11.75;;;8.20;;
41263;SDS011;26998;48.714;9.414;2022-12-26T01:17:10;11.40;;;8.60;;
41263;SDS011;26998;48.714;9.414;2022-12-26T01:19:37;12.10;;;8.30;;
41263;SDS011;26998;48.714;9.414;2022-12-26T01:22:03;15.90;;;11.10;;
41263;SDS011;26998;48.714;9.414;2022-12-26T01:24:30;13.68;;;9.23;;
41263;SDS011;26998;48.714;9.414;2022-12-26T01:26:56;20.55;;;12.75;;
41263;SDS011;26998;48.714;9.414;2022-12-26T01:29:23;17.83;;;13.60;;
41263;SDS011;26998;48.714;9.414;2022-12-26T01:31:49;19.88;;;14.48;;
41263;SDS011;26998;48.714;9.414;2022-12-26T01:34:16;19.52;;;14.75;;
41263;SDS011;26998;48.714;9.414;2022-12-26T01:36:42;21.40;;;16.33;;
41263;SDS011;26998;48.714;9.414;2022-12-26T01:39:08;22.95;;;16.65;;
41263;SDS011;26998;48.714;9.414;2022-12-26T01:41:36;22.50;;;17.08;;
41263;SDS011;26998;48.714;9.414;2022-12-26T01:44:04;22.88;;;17.85;;
41263;SDS011;26998;48.714;9.414;2022-12-26T01:46:34;22.17;;;16.23;;
41263;SDS011;26998;48.714;9.414;2022-12-26T01:49:06;19.52;;;15.98;;
41263;SDS011;26998;48.714;9.414;2022-12-26T01:51:39;19.75;;;15.15;;
41263;SDS011;26998;48.714;9.414;2022-12-26T01:56:57;19.75;;;15.55;;
41263;SDS011;26998;48.714;9.414;2022-12-26T01:59:29;19.38;;;15.88;;
41263;SDS011;26998;48.714;9.414;2022-12-26T02:01:58;20.70;;;15.00;;
41263;SDS011;26998;48.714;9.414;2022-12-26T02:04:30;14.88;;;11.80;;
41263;SDS011;26998;48.714;9.414;2022-12-26T02:07:04;13.30;;;10.75;;
41263;SDS011;26998;48.714;9.414;2022-12-26T02:09:31;12.98;;;9.02;;
41263;SDS011;26998;48.714;9.414;2022-12-26T02:12:00;11.07;;;8.85;;
41263;SDS011;26998;48.714;9.414;2022-12-26T02:14:54;11.93;;;8.75;;
41263;SDS011;26998;48.714;9.414;2022-12-26T02:17:23;13.25;;;9.48;;
41263;SDS011;26998;48.714;9.414;2022-12-26T02:22:29;12.75;;;9.20;;
41263;SDS011;26998;48.714;9.414;2022-12-26T02:28:06;11.18;;;8.38;;
41263;SDS011;26998;48.714;9.414;2022-12-26T02:30:58;8.95;;;7.18;;
41263;SDS011;26998;48.714;9.414;2022-12-26T02:33:56;10.98;;;7.07;;
41263;SDS011;26998;48.714;9.414;2022-12-26T02:36:39;9.30;;;6.65;;
41263;SDS011;26998;48.714;9.414;2022-12-26T02:42:19;9.48;;;6.53;;
41263;SDS011;26998;48.714;9.414;2022-12-26T02:44:57;10.73;;;6.60;;
41263;SDS011;26998;48.714;9.414;2022-12-26T02:53:07;10.75;;;7.07;;
41263;SDS011;26998;48.714;9.414;2022-12-26T02:55:43;12.10;;;7.57;;
41263;SDS011;26998;48.714;9.414;2022-12-26T02:58:14;10.70;;;6.73;;
41263;SDS011;26998;48.714;9.414;2022-12-26T03:00:46;11.02;;;6.43;;
41263;SDS011;26998;48.714;9.414;2022-12-26T03:03:18;8.05;;;6.20;;
41263;SDS011;26998;48.714;9.414;2022-12-26T03:05:49;9.50;;;6.70;;
41263;SDS011;26998;48.714;9.414;2022-12-26T03:08:25;9.85;;;7.10;;
41263;SDS011;26998;48.714;9.414;2022-12-26T03:10:57;8.38;;;6.60;;
41263;SDS011;26998;48.714;9.414;2022-12-26T03:13:28;13.38;;;7.22;;
41263;SDS011;26998;48.714;9.414;2022-12-26T03:16:01;10.93;;;7.38;;
41263;SDS011;26998;48.714;9.414;2022-12-26T03:18:32;8.95;;;6.55;;
41263;SDS011;26998;48.714;9.414;2022-12-26T03:21:23;12.43;;;7.83;;
41263;SDS011;26998;48.714;9.414;2022-12-26T03:23:52;10.80;;;6.78;;
41263;SDS011;26998;48.714;9.414;2022-12-26T03:26:24;8.55;;;7.15;;
41263;SDS011;26998;48.714;9.414;2022-12-26T03:28:56;13.15;;;8.02;;
41263;SDS011;26998;48.714;9.414;2022-12-26T03:31:22;10.00;;;6.60;;
41263;SDS011;26998;48.714;9.414;2022-12-26T03:33:49;10.52;;;7.60;;
41263;SDS011;26998;48.714;9.414;2022-12-26T03:36:24;11.43;;;6.15;;
41263;SDS011;26998;48.714;9.414;2022-12-26T03:39:12;9.93;;;7.22;;
41263;SDS011;26998;48.714;9.414;2022-12-26T03:41:58;12.48;;;8.25;;
41263;SDS011;26998;48.714;9.414;2022-12-26T03:44:36;14.45;;;8.15;;
41263;SDS011;26998;48.714;9.414;2022-12-26T03:47:26;12.38;;;7.53;;
41263;SDS011;26998;48.714;9.414;2022-12-26T03:50:00;7.80;;;6.75;;
41263;SDS011;26998;48.714;9.414;2022-12-26T03:53:00;9.60;;;6.57;;
41263;SDS011;26998;48.714;9.414;2022-12-26T03:55:35;8.80;;;6.22;;
41263;SDS011;26998;48.714;9.414;2022-12-26T03:58:18;7.88;;;6.50;;
41263;SDS011;26998;48.714;9.414;2022-12-26T04:00:53;14.48;;;7.78;;
41263;SDS011;26998;48.714;9.414;2022-12-26T04:03:21;12.05;;;7.32;;
41263;SDS011;26998;48.714;9.414;2022-12-26T04:05:51;13.05;;;8.10;;
41263;SDS011;26998;48.714;9.414;2022-12-26T04:08:20;14.15;;;7.45;;
41263;SDS011;26998;48.714;9.414;2022-12-26T04:10:52;13.10;;;9.02;;
41263;SDS011;26998;48.714;9.414;2022-12-26T04:13:28;11.02;;;8.52;;
41263;SDS011;26998;48.714;9.414;2022-12-26T04:16:03;11.88;;;8.30;;
41263;SDS011;26998;48.714;9.414;2022-12-26T04:21:28;10.48;;;7.82;;
41263;SDS011;26998;48.714;9.414;2022-12-26T04:24:02;11.45;;;8.20;;
41263;SDS011;26998;48.714;9.414;2022-12-26T04:26:39;12.93;;;8.20;;
41263;SDS011;26998;48.714;9.414;2022-12-26T04:29:11;12.40;;;8.43;;
41263;SDS011;26998;48.714;9.414;2022-12-26T04:34:25;10.57;;;8.00;;
41263;SDS011;26998;48.714;9.414;2022-12-26T04:37:00;17.83;;;10.75;;
41263;SDS011;26998;48.714;9.414;2022-12-26T04:39:31;17.38;;;10.82;;
41263;SDS011;26998;48.714;9.414;2022-12-26T04:42:00;21.30;;;13.68;;
41263;SDS011;26998;48.714;9.414;2022-12-26T04:44:27;22.38;;;13.25;;
41263;SDS011;26998;48.714;9.414;2022-12-26T04:46:55;17.63;;;10.38;;
41263;SDS011;26998;48.714;9.414;2022-12-26T04:49:22;12.20;;;8.90;;
41263;SDS011;26998;48.714;9.414;2022-12-26T04:51:49;13.38;;;8.35;;
41263;SDS011;26998;48.714;9.414;2022-12-26T04:54:15;11.02;;;7.15;;
41263;SDS011;26998;48.714;9.414;2022-12-26T04:56:42;10.90;;;7.03;;
41263;SDS011;26998;48.714;9.414;2022-12-26T04:59:08;14.90;;;8.57;;
41263;SDS011;26998;48.714;9.414;2022-12-26T05:01:35;15.30;;;9.60;;
41263;SDS011;26998;48.714;9.414;2022-12-26T05:04:02;14.40;;;9.25;;
41263;SDS011;26998;48.714;9.414;2022-12-26T05:06:29;11.85;;;9.35;;
41263;SDS011;26998;48.714;9.414;2022-12-26T05:08:55;12.90;;;10.05;;
41263;SDS011;26998;48.714;9.414;2022-12-26T05:11:21;12.15;;;8.70;;
41263;SDS011;26998;48.714;9.414;2022-12-26T05:13:50;11.70;;;8.55;;
41263;SDS011;26998;48.714;9.414;2022-12-26T05:16:21;16.35;;;9.00;;
41263;SDS011;26998;48.714;9.414;2022-12-26T05:18:49;14.25;;;9.85;;
41263;SDS011;26998;48.714;9.414;2022-12-26T05:21:15;12.05;;;8.45;;
41263;SDS011;26998;48.714;9.414;2022-12-26T05:23:43;10.02;;;6.28;;
41263;SDS011;26998;48.714;9.414;2022-12-26T05:26:13;13.43;;;6.43;;
41263;SDS011;26998;48.714;9.414;2022-12-26T05:28:42;9.82;;;6.45;;
41263;SDS011;26998;48.714;9.414;2022-12-26T05:33:40;8.80;;;7.05;;
41263;SDS011;26998;48.714;9.414;2022-12-26T05:36:07;10.35;;;7.07;;
41263;SDS011;26998;48.714;9.414;2022-12-26T05:38:35;11.80;;;7.38;;
41263;SDS011;26998;48.714;9.414;2022-12-26T05:41:02;9.68;;;7.07;;
41263;SDS011;26998;48.714;9.414;2022-12-26T05:43:29;13.98;;;8.18;;
41263;SDS011;26998;48.714;9.414;2022-12-26T05:45:55;9.35;;;6.82;;
41263;SDS011;26998;48.714;9.414;2022-12-26T05:48:22;9.27;;;6.45;;
41263;SDS011;26998;48.714;9.414;2022-12-26T05:50:49;8.43;;;6.97;;
41263;SDS011;26998;48.714;9.414;2022-12-26T05:53:16;8.95;;;6.82;;
41263;SDS011;26998;48.714;9.414;2022-12-26T05:55:43;9.50;;;6.82;;
41263;SDS011;26998;48.714;9.414;2022-12-26T05:58:09;16.60;;;10.00;;
41263;SDS011;26998;48.714;9.414;2022-12-26T06:00:35;10.50;;;8.77;;
41263;SDS011;26998;48.714;9.414;2022-12-26T06:03:02;15.18;;;9.70;;
41263;SDS011;26998;48.714;9.414;2022-12-26T06:05:29;11.82;;;8.43;;
41263;SDS011;26998;48.714;9.414;2022-12-26T06:07:55;13.70;;;7.97;;
41263;SDS011;26998;48.714;9.414;2022-12-26T06:10:22;10.18;;;7.18;;
41263;SDS011;26998;48.714;9.414;2022-12-26T06:12:48;9.65;;;6.78;;
41263;SDS011;26998;48.714;9.414;2022-12-26T06:15:15;10.93;;;7.57;;
41263;SDS011;26998;48.714;9.414;2022-12-26T06:17:41;13.93;;;7.97;;
41263;SDS011;26998;48.714;9.414;2022-12-26T06:20:08;12.40;;;8.68;;
41263;SDS011;26998;48.714;9.414;2022-12-26T06:22:35;12.23;;;8.32;;
41263;SDS011;26998;48.714;9.414;2022-12-26T06:25:01;12.55;;;8.82;;
41263;SDS011;26998;48.714;9.414;2022-12-26T06:27:28;10.38;;;7.97;;
41263;SDS011;26998;48.714;9.414;2022-12-26T06:29:54;13.35;;;8.25;;
41263;SDS011;26998;48.714;9.414;2022-12-26T06:32:21;12.35;;;7.88;;
41263;SDS011;26998;48.714;9.414;2022-12-26T06:34:47;10.05;;;7.75;;
41263;SDS011;26998;48.714;9.414;2022-12-26T06:37:14;13.43;;;8.15;;
41263;SDS011;26998;48.714;9.414;2022-12-26T06:39:41;10.00;;;6.88;;
41263;SDS011;26998;48.714;9.414;2022-12-26T06:42:07;11.13;;;7.75;;
41263;SDS011;26998;48.714;9.414;2022-12-26T06:44:34;9.50;;;6.80;;
41263;SDS011;26998;48.714;9.414;2022-12-26T06:47:00;11.23;;;7.95;;
41263;SDS011;26998;48.714;9.414;2022-12-26T06:49:27;7.95;;;6.30;;
41263;SDS011;26998;48.714;9.414;2022-12-26T06:51:58;11.23;;;6.85;;
41263;SDS011;26998;48.714;9.414;2022-12-26T06:54:24;10.95;;;5.95;;
41263;SDS011;26998;48.714;9.414;2022-12-26T06:56:51;9.93;;;6.63;;
41263;SDS011;26998;48.714;9.414;2022-12-26T06:59:17;8.90;;;6.38;;
41263;SDS011;26998;48.714;9.414;2022-12-26T07:01:44;14.30;;;7.65;;
41263;SDS011;26998;48.714;9.414;2022-12-26T07:04:11;11.43;;;6.60;;
41263;SDS011;26998;48.714;9.414;2022-12-26T07:06:38;9.40;;;6.55;;
41263;SDS011;26998;48.714;9.414;2022-12-26T07:09:12;8.88;;;6.97;;
41263;SDS011;26998;48.714;9.414;2022-12-26T07:11:42;8.07;;;6.68;;
41263;SDS011;26998;48.714;9.414;2022-12-26T07:14:12;9.80;;;6.63;;
41263;SDS011;26998;48.714;9.414;2022-12-26T07:16:40;7.60;;;5.82;;
41263;SDS011;26998;48.714;9.414;2022-12-26T07:19:08;8.15;;;6.13;;
41263;SDS011;26998;48.714;9.414;2022-12-26T07:21:36;9.68;;;6.47;;
41263;SDS011;26998;48.714;9.414;2022-12-26T07:24:08;6.97;;;5.70;;
41263;SDS011;26998;48.714;9.414;2022-12-26T07:26:41;10.70;;;6.45;;
41263;SDS011;26998;48.714;9.414;2022-12-26T07:29:08;10.95;;;6.80;;
41263;SDS011;26998;48.714;9.414;2022-12-26T07:31:35;10.32;;;7.13;;
41263;SDS011;26998;48.714;9.414;2022-12-26T07:34:02;7.43;;;6.63;;
41263;SDS011;26998;48.714;9.414;2022-12-26T07:36:28;9.02;;;6.82;;
41263;SDS011;26998;48.714;9.414;2022-12-26T07:38:55;10.80;;;6.65;;
41263;SDS011;26998;48.714;9.414;2022-12-26T07:41:21;10.45;;;6.68;;
41263;SDS011;26998;48.714;9.414;2022-12-26T07:43:48;7.93;;;5.78;;
41263;SDS011;26998;48.714;9.414;2022-12-26T07:46:14;7.80;;;6.47;;
41263;SDS011;26998;48.714;9.414;2022-12-26T07:48:41;9.43;;;5.80;;
41263;SDS011;26998;48.714;9.414;2022-12-26T07:51:08;8.30;;;5.85;;
41263;SDS011;26998;48.714;9.414;2022-12-26T07:53:34;7.38;;;6.32;;
41263;SDS011;26998;48.714;9.414;2022-12-26T07:56:01;8.25;;;6.78;;
41263;SDS011;26998;48.714;9.414;2022-12-26T07:58:27;7.88;;;6.53;;
41263;SDS011;26998;48.714;9.414;2022-12-26T08:00:54;8.80;;;6.57;;
41263;SDS011;26998;48.714;9.414;2022-12-26T08:03:21;8.25;;;6.53;;
41263;SDS011;26998;48.714;9.414;2022-12-26T08:05:48;11.45;;;6.63;;
41263;SDS011;26998;48.714;9.414;2022-12-26T08:08:15;12.23;;;7.30;;
41263;SDS011;26998;48.714;9.414;2022-12-26T08:10:42;9.43;;;7.05;;
41263;SDS011;26998;48.714;9.414;2022-12-26T08:13:08;12.07;;;7.55;;
41263;SDS011;26998;48.714;9.414;2022-12-26T08:15:38;10.57;;;7.00;;
41263;SDS011;26998;48.714;9.414;2022-12-26T08:18:05;9.40;;;6.72;;
41263;SDS011;26998;48.714;9.414;2022-12-26T08:20:32;10.77;;;8.07;;
41263;SDS011;26998;48.714;9.414;2022-12-26T08:22:59;10.23;;;7.50;;
41263;SDS011;26998;48.714;9.414;2022-12-26T08:25:26;9.77;;;7.00;;
41263;SDS011;26998;48.714;9.414;2022-12-26T08:27:52;10.07;;;7.13;;
41263;SDS011;26998;48.714;9.414;2022-12-26T08:30:19;10.07;;;7.93;;
41263;SDS011;26998;48.714;9.414;2022-12-26T08:32:45;10.85;;;7.95;;
41263;SDS011;26998;48.714;9.414;2022-12-26T08:35:11;9.35;;;7.68;;
41263;SDS011;26998;48.714;9.414;2022-12-26T08:37:38;11.30;;;8.27;;
41263;SDS011;26998;48.714;9.414;2022-12-26T08:40:04;11.85;;;8.70;;
41263;SDS011;26998;48.714;9.414;2022-12-26T08:42:31;13.00;;;8.27;;
41263;SDS011;26998;48.714;9.414;2022-12-26T08:45:05;15.98;;;9.25;;
41263;SDS011;26998;48.714;9.414;2022-12-26T08:47:32;10.90;;;8.38;;
41263;SDS011;26998;48.714;9.414;2022-12-26T08:49:58;13.90;;;9.43;;
41263;SDS011;26998;48.714;9.414;2022-12-26T08:52:25;10.70;;;8.05;;
41263;SDS011;26998;48.714;9.414;2022-12-26T08:54:51;10.80;;;8.10;;
41263;SDS011;26998;48.714;9.414;2022-12-26T08:57:17;10.88;;;8.27;;
41263;SDS011;26998;48.714;9.414;2022-12-26T08:59:44;15.57;;;9.05;;
41263;SDS011;26998;48.714;9.414;2022-12-26T09:02:10;13.75;;;9.35;;
41263;SDS011;26998;48.714;9.414;2022-12-26T09:04:37;10.93;;;8.63;;
41263;SDS011;26998;48.714;9.414;2022-12-26T09:07:05;15.95;;;9.20;;
41263;SDS011;26998;48.714;9.414;2022-12-26T09:09:33;15.23;;;10.40;;
41263;SDS011;26998;48.714;9.414;2022-12-26T09:12:00;16.90;;;10.07;;
41263;SDS011;26998;48.714;9.414;2022-12-26T09:14:26;12.43;;;8.95;;
41263;SDS011;26998;48.714;9.414;2022-12-26T09:16:53;16.10;;;11.73;;
41263;SDS011;26998;48.714;9.414;2022-12-26T09:19:20;16.40;;;11.43;;
41263;SDS011;26998;48.714;9.414;2022-12-26T09:21:47;15.45;;;10.88;;
41263;SDS011;26998;48.714;9.414;2022-12-26T09:24:16;12.73;;;9.80;;
41263;SDS011;26998;48.714;9.414;2022-12-26T09:26:43;18.05;;;10.30;;
41263;SDS011;26998;48.714;9.414;2022-12-26T09:29:10;15.25;;;10.27;;
41263;SDS011;26998;48.714;9.414;2022-12-26T09:31:37;12.35;;;9.13;;
41263;SDS011;26998;48.714;9.414;2022-12-26T09:34:04;13.45;;;8.95;;
41263;SDS011;26998;48.714;9.414;2022-12-26T09:36:32;14.57;;;9.95;;
41263;SDS011;26998;48.714;9.414;2022-12-26T09:39:01;15.90;;;10.32;;
41263;SDS011;26998;48.714;9.414;2022-12-26T09:44:39;14.05;;;10.63;;
41263;SDS011;26998;48.714;9.414;2022-12-26T09:49:56;11.07;;;9.00;;
41263;SDS011;26998;48.714;9.414;2022-12-26T09:55:21;14.30;;;8.27;;
41263;SDS011;26998;48.714;9.414;2022-12-26T09:57:56;12.38;;;8.70;;
41263;SDS011;26998;48.714;9.414;2022-12-26T10:00:31;18.33;;;9.52;;
41263;SDS011;26998;48.714;9.414;2022-12-26T10:03:03;15.05;;;9.85;;
41263;SDS011;26998;48.714;9.414;2022-12-26T10:05:32;12.43;;;9.23;;
41263;SDS011;26998;48.714;9.414;2022-12-26T10:08:26;14.77;;;8.32;;
41263;SDS011;26998;48.714;9.414;2022-12-26T10:11:23;13.45;;;9.13;;
41263;SDS011;26998;48.714;9.414;2022-12-26T10:14:20;13.13;;;8.95;;
41263;SDS011;26998;48.714;9.414;2022-12-26T10:16:58;15.30;;;9.57;;
41263;SDS011;26998;48.714;9.414;2022-12-26T10:19:33;13.23;;;8.88;;
41263;SDS011;26998;48.714;9.414;2022-12-26T10:24:52;12.93;;;8.82;;
41263;SDS011;26998;48.714;9.414;2022-12-26T10:27:25;16.38;;;11.38;;
41263;SDS011;26998;48.714;9.414;2022-12-26T10:30:00;16.42;;;10.32;;
41263;SDS011;26998;48.714;9.414;2022-12-26T10:32:35;17.23;;;11.20;;
41263;SDS011;26998;48.714;9.414;2022-12-26T10:35:19;11.38;;;9.20;;
41263;SDS011;26998;48.714;9.414;2022-12-26T10:37:52;15.25;;;9.13;;
41263;SDS011;26998;48.714;9.414;2022-12-26T10:40:26;17.38;;;9.73;;
41263;SDS011;26998;48.714;9.414;2022-12-26T10:43:16;16.05;;;9.35;;
41263;SDS011;26998;48.714;9.414;2022-12-26T10:45:56;15.57;;;9.32;;
41263;SDS011;26998;48.714;9.414;2022-12-26T10:48:41;17.27;;;9.57;;
41263;SDS011;26998;48.714;9.414;2022-12-26T10:51:08;15.13;;;9.35;;
41263;SDS011;26998;48.714;9.414;2022-12-26T10:53:35;17.02;;;9.00;;
41263;SDS011;26998;48.714;9.414;2022-12-26T10:56:06;11.43;;;8.68;;
41263;SDS011;26998;48.714;9.414;2022-12-26T10:58:39;15.65;;;9.52;;
41263;SDS011;26998;48.714;9.414;2022-12-26T11:03:55;14.68;;;9.18;;
41263;SDS011;26998;48.714;9.414;2022-12-26T11:06:24;20.40;;;10.88;;
41263;SDS011;26998;48.714;9.414;2022-12-26T11:08:54;13.88;;;10.23;;
41263;SDS011;26998;48.714;9.414;2022-12-26T11:11:24;13.82;;;10.50;;
41263;SDS011;26998;48.714;9.414;2022-12-26T11:13:54;20.73;;;12.43;;
41263;SDS011;26998;48.714;9.414;2022-12-26T11:16:37;20.60;;;13.10;;
41263;SDS011;26998;48.714;9.414;2022-12-26T11:19:05;23.08;;;14.13;;
41263;SDS011;26998;48.714;9.414;2022-12-26T11:21:31;23.45;;;13.98;;
41263;SDS011;26998;48.714;9.414;2022-12-26T11:26:34;18.77;;;12.43;;
41263;SDS011;26998;48.714;9.414;2022-12-26T11:29:05;14.88;;;10.80;;
41263;SDS011;26998;48.714;9.414;2022-12-26T11:31:32;20.92;;;14.30;;
41263;SDS011;26998;48.714;9.414;2022-12-26T11:33:59;20.85;;;13.75;;
41263;SDS011;26998;48.714;9.414;2022-12-26T11:36:26;20.52;;;14.15;;
41263;SDS011;26998;48.714;9.414;2022-12-26T11:38:56;16.45;;;12.18;;
41263;SDS011;26998;48.714;9.414;2022-12-26T11:43:52;14.45;;;10.88;;
41263;SDS011;26998;48.714;9.414;2022-12-26T11:46:20;16.63;;;10.82;;
41263;SDS011;26998;48.714;9.414;2022-12-26T11:48:58;17.77;;;12.15;;
41263;SDS011;26998;48.714;9.414;2022-12-26T11:51:35;18.13;;;12.23;;
41263;SDS011;26998;48.714;9.414;2022-12-26T11:54:16;19.80;;;13.82;;
41263;SDS011;26998;48.714;9.414;2022-12-26T11:56:49;16.52;;;11.55;;
41263;SDS011;26998;48.714;9.414;2022-12-26T11:59:26;15.95;;;10.48;;
41263;SDS011;26998;48.714;9.414;2022-12-26T12:05:00;16.77;;;11.55;;
41263;SDS011;26998;48.714;9.414;2022-12-26T12:10:38;17.17;;;10.35;;
41263;SDS011;26998;48.714;9.414;2022-12-26T12:13:44;13.75;;;8.98;;
41263;SDS011;26998;48.714;9.414;2022-12-26T12:18:56;12.82;;;9.52;;
41263;SDS011;26998;48.714;9.414;2022-12-26T12:21:38;17.55;;;11.43;;
41263;SDS011;26998;48.714;9.414;2022-12-26T12:43:43;10.45;;;7.55;;
41263;SDS011;26998;48.714;9.414;2022-12-26T12:49:00;10.45;;;8.10;;
41263;SDS011;26998;48.714;9.414;2022-12-26T12:51:46;10.65;;;7.88;;
41263;SDS011;26998;48.714;9.414;2022-12-26T13:00:18;6.35;;;5.63;;
41263;SDS011;26998;48.714;9.414;2022-12-26T13:02:54;6.28;;;4.00;;
41263;SDS011;26998;48.714;9.414;2022-12-26T13:11:09;4.18;;;3.50;;
41263;SDS011;26998;48.714;9.414;2022-12-26T13:13:55;3.10;;;2.80;;
41263;SDS011;26998;48.714;9.414;2022-12-26T13:16:28;4.63;;;3.22;;
41263;SDS011;26998;48.714;9.414;2022-12-26T13:18:59;4.28;;;2.75;;
41263;SDS011;26998;48.714;9.414;2022-12-26T13:21:30;5.80;;;2.75;;
41263;SDS011;26998;48.714;9.414;2022-12-26T13:24:03;3.45;;;2.35;;
41263;SDS011;26998;48.714;9.414;2022-12-26T13:26:47;2.17;;;1.98;;
41263;SDS011;26998;48.714;9.414;2022-12-26T13:29:38;2.58;;;2.38;;
41263;SDS011;26998;48.714;9.414;2022-12-26T13:32:40;4.00;;;2.33;;
41263;SDS011;26998;48.714;9.414;2022-12-26T13:35:00;4.03;;;2.10;;
41263;SDS011;26998;48.714;9.414;2022-12-26T13:40:23;4.00;;;2.10;;
41263;SDS011;26998;48.714;9.414;2022-12-26T13:42:58;3.10;;;1.67;;
41263;SDS011;26998;48.714;9.414;2022-12-26T13:48:53;1.40;;;1.23;;
41263;SDS011;26998;48.714;9.414;2022-12-26T13:50:54;2.05;;;1.63;;
41263;SDS011;26998;48.714;9.414;2022-12-26T13:55:52;5.20;;;1.80;;
41263;SDS011;26998;48.714;9.414;2022-12-26T14:20:41;3.15;;;2.35;;
41263;SDS011;26998;48.714;9.414;2022-12-26T14:43:01;9.90;;;4.78;;
41263;SDS011;26998;48.714;9.414;2022-12-26T14:50:47;2.38;;;2.17;;
41263;SDS011;26998;48.714;9.414;2022-12-26T14:58:49;2.35;;;2.15;;
41263;SDS011;26998;48.714;9.414;2022-12-26T15:34:26;3.50;;;2.67;;
41263;SDS011;26998;48.714;9.414;2022-12-26T15:37:10;3.20;;;2.30;;
41263;SDS011;26998;48.714;9.414;2022-12-26T16:01:43;5.03;;;2.30;;
41263;SDS011;26998;48.714;9.414;2022-12-26T16:04:14;3.25;;;2.10;;
41263;SDS011;26998;48.714;9.414;2022-12-26T16:09:41;2.53;;;1.42;;
41263;SDS011;26998;48.714;9.414;2022-12-26T16:12:26;1.95;;;1.40;;
41263;SDS011;26998;48.714;9.414;2022-12-26T16:17:37;1.63;;;1.33;;
41263;SDS011;26998;48.714;9.414;2022-12-26T16:22:49;2.00;;;1.45;;
41263;SDS011;26998;48.714;9.414;2022-12-26T16:25:17;1.30;;;1.17;;
41263;SDS011;26998;48.714;9.414;2022-12-26T16:27:47;1.40;;;1.30;;
41263;SDS011;26998;48.714;9.414;2022-12-26T16:30:18;1.65;;;1.15;;
41263;SDS011;26998;48.714;9.414;2022-12-26T16:32:47;1.23;;;1.00;;
41263;SDS011;26998;48.714;9.414;2022-12-26T16:35:21;1.60;;;1.40;;
41263;SDS011;26998;48.714;9.414;2022-12-26T16:37:52;0.98;;;0.90;;
41263;SDS011;26998;48.714;9.414;2022-12-26T16:40:28;1.20;;;0.90;;
41263;SDS011;26998;48.714;9.414;2022-12-26T16:43:08;1.60;;;1.23;;
41263;SDS011;26998;48.714;9.414;2022-12-26T16:45:43;2.78;;;1.10;;
41263;SDS011;26998;48.714;9.414;2022-12-26T16:48:18;1.17;;;1.13;;
41263;SDS011;26998;48.714;9.414;2022-12-26T16:50:48;1.20;;;1.10;;
41263;SDS011;26998;48.714;9.414;2022-12-26T16:53:18;1.25;;;1.15;;
41263;SDS011;26998;48.714;9.414;2022-12-26T16:55:56;3.60;;;2.42;;
41263;SDS011;26998;48.714;9.414;2022-12-26T16:58:40;2.08;;;1.88;;
41263;SDS011;26998;48.714;9.414;2022-12-26T17:01:08;2.20;;;1.60;;
41263;SDS011;26998;48.714;9.414;2022-12-26T17:06:11;2.42;;;1.77;;
41263;SDS011;26998;48.714;9.414;2022-12-26T17:08:44;3.28;;;2.15;;
41263;SDS011;26998;48.714;9.414;2022-12-26T17:11:13;6.03;;;3.33;;
41263;SDS011;26998;48.714;9.414;2022-12-26T17:13:45;3.50;;;1.98;;
41263;SDS011;26998;48.714;9.414;2022-12-26T17:16:14;1.83;;;1.60;;
41263;SDS011;26998;48.714;9.414;2022-12-26T17:18:44;2.35;;;1.40;;
41263;SDS011;26998;48.714;9.414;2022-12-26T17:24:03;1.40;;;1.23;;
41263;SDS011;26998;48.714;9.414;2022-12-26T17:26:48;1.75;;;1.15;;
41263;SDS011;26998;48.714;9.414;2022-12-26T17:32:11;1.38;;;1.15;;
41263;SDS011;26998;48.714;9.414;2022-12-26T17:34:41;1.17;;;1.07;;
41263;SDS011;26998;48.714;9.414;2022-12-26T17:39:49;3.95;;;1.25;;
41263;SDS011;26998;48.714;9.414;2022-12-26T17:42:28;3.08;;;1.40;;
41263;SDS011;26998;48.714;9.414;2022-12-26T17:44:54;1.50;;;1.00;;
41263;SDS011;26998;48.714;9.414;2022-12-26T17:47:26;2.08;;;0.88;;
41263;SDS011;26998;48.714;9.414;2022-12-26T17:49:53;0.80;;;0.80;;
41263;SDS011;26998;48.714;9.414;2022-12-26T17:52:22;1.67;;;1.10;;
41263;SDS011;26998;48.714;9.414;2022-12-26T17:54:52;1.73;;;1.00;;
41263;SDS011;26998;48.714;9.414;2022-12-26T17:57:20;2.05;;;1.10;;
41263;SDS011;26998;48.714;9.414;2022-12-26T17:59:49;1.25;;;1.15;;
41263;SDS011;26998;48.714;9.414;2022-12-26T18:02:17;1.65;;;1.42;;
41263;SDS011;26998;48.714;9.414;2022-12-26T18:04:45;1.75;;;1.27;;
41263;SDS011;26998;48.714;9.414;2022-12-26T18:07:14;1.60;;;1.50;;
41263;SDS011;26998;48.714;9.414;2022-12-26T18:09:44;3.42;;;2.28;;
41263;SDS011;26998;48.714;9.414;2022-12-26T18:12:12;3.42;;;2.28;;
41263;SDS011;26998;48.714;9.414;2022-12-26T18:14:40;7.28;;;6.20;;
41263;SDS011;26998;48.714;9.414;2022-12-26T18:17:07;8.57;;;5.28;;
41263;SDS011;26998;48.714;9.414;2022-12-26T18:19:36;6.47;;;3.90;;
41263;SDS011;26998;48.714;9.414;2022-12-26T18:22:08;6.68;;;4.38;;
41263;SDS011;26998;48.714;9.414;2022-12-26T18:24:37;3.90;;;2.67;;
41263;SDS011;26998;48.714;9.414;2022-12-26T18:27:04;2.95;;;2.60;;
41263;SDS011;26998;48.714;9.414;2022-12-26T18:29:30;3.30;;;2.53;;
41263;SDS011;26998;48.714;9.414;2022-12-26T18:31:57;4.78;;;2.95;;
41263;SDS011;26998;48.714;9.414;2022-12-26T18:34:23;3.35;;;2.72;;
41263;SDS011;26998;48.714;9.414;2022-12-26T18:36:50;2.88;;;2.33;;
41263;SDS011;26998;48.714;9.414;2022-12-26T18:39:17;2.70;;;2.00;;
41263;SDS011;26998;48.714;9.414;2022-12-26T18:41:43;2.78;;;2.00;;